Friday, January 19, 2018, 1:55 AM GMT
Back to Local

CYHZ, Halifax International Airport

Location: , , Canada Lat: 44.883
Local Time: 1:55 AM GMT ( 1:55 GMT) Lon: -63.5
Time Zone: GMT Elev: 475 ft

Show me the last for .
Show Decoded

2018-01-19 01:00 METAR CYHZ 190100Z 34008KT 15SM BKN021 M04/M05 A2975 RMK SC5 SLP082 =
2018-01-19 00:00 METAR CYHZ 190000Z 32010KT 15SM BKN018 M03/M05 A2974 RMK SC5 SLP081 =
2018-01-18 23:00 METAR CYHZ 182300Z 33006KT 15SM BKN015 M02/M03 A2973 RMK SC6 SLP076 =
2018-01-18 22:00 METAR CYHZ 182200Z 33012G18KT 14SM OVC015 M02/M03 A2971 RMK SC8 SLP068 =
2018-01-18 21:00 METAR CYHZ 182100Z 31009KT 15SM BKN013 M00/M01 A2971 RMK SC7 SLP070 =
2018-01-18 20:31 METAR CYHZ 182031Z 26005KT 15SM BKN021 M00/M01 A2972 RMK SC7 PRESFR SLP071 =
2018-01-18 20:00 METAR CYHZ 182000Z 29006KT 260V330 12SM -SHSN OVC017 M00/M01 A2973 RMK SC8 VIS
                 LWR W-NW CU EMBDD SLP075 =
2018-01-18 19:56 METAR CYHZ 181956Z 31005KT 260V330 12SM -SHSN OVC017 M00/M01 A2973 RMK SC8 CU
                 EMBDD VIS LWR W-NW SLP077 =
2018-01-18 19:00 METAR CYHZ 181900Z 32005KT 15SM SCT009 OVC240 M01/M01 A2973 RMK CU3CI5 SLP075 =
2018-01-18 18:00 METAR CYHZ 181800Z 30008KT 15SM OVC007 M01/M01 A2975 RMK CU8 SLP083 =
2018-01-18 17:00 METAR CYHZ 181700Z 27007KT 250V320 15SM OVC007 M01/M01 A2977 RMK CU8 SLP088 =
2018-01-18 16:00 METAR CYHZ 181600Z 31005KT 15SM BKN005 M01/M02 A2978 RMK CU7 PRESFR SLP094 =
2018-01-18 15:00 METAR CYHZ 181500Z 31008KT 15SM BKN005 BKN250 M01/M02 A2981 RMK SC6CI1 SLP104 =
2018-01-18 14:00 METAR CYHZ 181400Z 30006KT 15SM FEW003 SCT022 BKN220 M02/M02 A2982 RMK SF1SC3CI2
                 SLP106 =
2018-01-18 13:10 METAR CYHZ 181310Z 29007KT 15SM SCT002 BKN019 M03/M03 A2982 RMK SF3SC4 SLP108 =
2018-01-18 13:00 METAR CYHZ 181300Z 29008KT 15SM BKN002 BKN022 M03/M03 A2982 RMK SF6SC1 SLP108 =
2018-01-18 12:53 METAR CYHZ 181253Z 29009KT 15SM SCT002 BKN004 BKN022 M03/M03 A2982 RMK SF4ST3SC1
                 SC TR SLP107 =
2018-01-18 12:37 METAR CYHZ 181237Z 29005KT 15SM BKN005 BKN022 BKN250 M03/M03 A2982 RMK ST5SC1CI1
                 PRESRR SLP107 =
2018-01-18 12:00 METAR CYHZ 181200Z CCA 31005KT 15SM BKN021 M03/M03 A2981 RMK SC5 SLP104 =
2018-01-18 11:00 METAR CYHZ 181100Z 34010KT 10SM SCT004 BKN016 M03/M03 A2979 RMK CF4SC3 SLP096 =
2018-01-18 10:44 METAR CYHZ 181044Z 33011KT 10SM SCT004 OVC012 M02/M02 A2978 RMK CF4ST4 SLP094 =
2018-01-18 10:00 METAR CYHZ 181000Z 33013G18KT 6SM -FZDZ BR OVC003 M02/M02 A2978 RMK ST8 SLP092 =
2018-01-18 09:34 METAR CYHZ 180934Z 32016KT 3SM -FZDZ BR OVC003 M02/M02 A2979 RMK ST8 SLP095 =
2018-01-18 09:21 METAR CYHZ 180921Z 33014G20KT 1SM -FZDZ BR VV003 M01/M01 A2978 RMK FG8 SLP094 =
2018-01-18 09:00 METAR CYHZ 180900Z 33011G17KT 1/2SM -FZDZ FZFG VV002 M01/M01 A2979 RMK FG8
                 SLP095 =
2018-01-18 08:38 METAR CYHZ 180838Z 34008KT 1/2SM -FZDZ FZFG VV002 M01/M01 A2978 RMK FG8 WSHFT
                 0805 SLP094 =
2018-01-18 08:20 METAR CYHZ 180820Z 33011KT 2SM -FZDZ BR OVC003 M02/M02 A2978 RMK ST8 SLP094 =
2018-01-18 08:07 METAR CYHZ 180807Z 01007KT 6SM BR SCT003 BKN016 OVC030 M01/M01 A2977 RMK
                 CF4SC2SC2 SLP091 =
2018-01-18 08:00 METAR CYHZ 180800Z 01009KT 2SM -FZDZ BR BKN003 OVC020 M01/M01 A2978 RMK CF5SC3
                 SLP093 =
2018-01-18 07:00 METAR CYHZ 180700Z 36010G16KT 1 1/2SM -FZDZ BR OVC003 M02/M02 A2977 RMK CF8
                 SLP091 =
2018-01-18 06:27 METAR CYHZ 180627Z 35011KT 1SM -FZDZ BR OVC020 M01/M01 A2978 RMK FG6CF2 SLP093 =
2018-01-18 06:13 METAR CYHZ 180613Z 35011KT 2SM -FZDZ BR OVC003 M01/M01 A2979 RMK CF8 SLP095 =
2018-01-18 06:00 METAR CYHZ 180600Z 01009KT 3SM -FZDZ BR OVC003 M02/M02 A2979 RMK CF8 SLP095 =
2018-01-18 05:48 METAR CYHZ 180548Z 01010KT 3SM -FZDZ BR OVC003 M02/M02 A2978 RMK CF8 SLP094 =
2018-01-18 05:35 METAR CYHZ 180535Z 03009KT 7SM -FZRA OVC005 M02/M02 A2978 RMK CF8 SLP093 =
2018-01-18 05:00 METAR CYHZ 180500Z 06010G16KT 8SM -FZRA -PL BKN007 OVC016 M01/M01 A2981 RMK
                 CF5SC3 SLP103 =
2018-01-18 04:04 METAR CYHZ 180404Z 03010G18KT 5SM -FZRA -PL BKN007 OVC017 M01/M01 A2988 RMK
                 CF5SC3 PRESRR SLP126 =
2018-01-18 04:00 METAR CYHZ 180400Z 05010G18KT 4SM -FZRA -SNPL BKN007 OVC017 M01/M02 A2987 RMK
                 CF5SC3 SLP123 =
2018-01-18 03:54 METAR CYHZ 180354Z 04013G18KT 4SM -FZRA -SNPL BKN007 OVC017 M02/M02 A2987 RMK
                 CF5SC3 SLP123 =
2018-01-18 03:39 METAR CYHZ 180339Z 07016KT 2 1/2SM -SNPL SCT007 OVC017 M02/M02 A2986 RMK CF3SC5
                 PRESFR SLP120 =
2018-01-18 03:18 METAR CYHZ 180318Z 06011G18KT 1 1/2SM -FZRA -SNPL SCT007 OVC015 M02/M02 A2988
                 RMK CF3SC5 PRESFR SLP129 =
2018-01-18 03:00 METAR CYHZ 180300Z 05010KT 1 1/2SM -SNPL BR BKN007 OVC011 M02/M02 A2992 RMK
                 SF5SC3 /S02/ SLP141 =
2018-01-18 02:30 METAR CYHZ 180230Z 05010KT 1 1/2SM -SNPL BR BKN007 OVC012 M02/M02 A2994 RMK
                 ST5SC3 SLP149 =
2018-01-18 02:00 METAR CYHZ 180200Z 06010G18KT 3SM -SNPL BKN007 OVC015 M02/M02 A2996 RMK SF5SC3
                 SLP154 =

Support USWX by starting your Amazon purchase here.